ΕΜΥ, Εθνική Μετεωρολογική Υπηρεσία - Δελτία Καιρού, Προγνώσεις

ΑΕΡΟΝΑΥΤΙΛΙΑ

GREEK AIRPORTS CODES

LGPZ 181020Z 27009KT 9999 FEW020 SCT030 20/10 Q1009=

EUROPEAN AIRPORTS CODES

LFPO 181000Z 36009KT 330V050 9999 BKN026 09/04 Q1022 NOSIG=